Time;durP1;ratioP1;P1;durP2;ratioP2;P2;SDS_P1;SDS_P2;PMS_P1;PMS_P2;Temp;Humidity;BMP_temperature;BMP_pressure;BME280_temperature;BME280_humidity;BME280_pressure;Samples;Min_cycle;Max_cycle;Signal;HPM_P1;HPM_P2
2022/08/01 00:01:22;;;;;;;4.12;3.72;;;;;;;29.25;46.14;100803.48;1714266;83;21553;-48
2022/08/01 00:03:49;;;;;;;4.12;3.72;;;;;;;29.25;46.41;100801.66;1713571;83;21077;-51
2022/08/01 00:06:15;;;;;;;5.03;4.10;;;;;;;29.23;46.52;100802.80;1716162;83;21065;-51
2022/08/01 00:08:44;;;;;;;5.83;3.80;;;;;;;29.19;46.66;100796.05;1716821;83;21069;-50
2022/08/01 00:11:10;;;;;;;4.92;3.72;;;;;;;29.18;46.81;100797.06;1716657;83;21497;-49
2022/08/01 00:13:39;;;;;;;6.15;4.60;;;;;;;29.16;47.03;100802.55;1712938;83;21529;-50
2022/08/01 00:16:06;;;;;;;6.05;4.12;;;;;;;29.13;47.09;100796.63;1704047;83;21029;-51
2022/08/01 00:18:33;;;;;;;6.35;4.28;;;;;;;29.10;47.37;100797.77;1717018;83;21053;-49
2022/08/01 00:20:59;;;;;;;5.95;4.33;;;;;;;29.08;47.44;100789.55;1715412;83;21049;-49
2022/08/01 00:23:26;;;;;;;5.37;4.42;;;;;;;29.07;47.51;100795.89;1715077;83;21010;-49
2022/08/01 00:25:53;;;;;;;4.45;3.90;;;;;;;29.06;47.64;100784.84;1715857;83;21041;-49
2022/08/01 00:28:20;;;;;;;5.35;3.70;;;;;;;29.05;47.74;100791.18;1716886;83;21498;-49
2022/08/01 00:30:47;;;;;;;4.17;3.77;;;;;;;29.03;47.99;100786.47;1717026;83;20990;-54
2022/08/01 00:33:13;;;;;;;4.33;3.92;;;;;;;29.01;47.99;100788.46;1714947;83;21068;-52
2022/08/01 00:35:41;;;;;;;6.83;4.40;;;;;;;28.98;47.81;100777.54;1710108;83;21034;-48
2022/08/01 00:38:07;;;;;;;4.75;4.20;;;;;;;28.97;47.85;100787.41;1706365;83;21546;-50
2022/08/01 00:40:35;;;;;;;4.70;3.90;;;;;;;28.98;47.65;100783.75;1699025;84;21074;-51
2022/08/01 00:43:02;;;;;;;7.22;3.72;;;;;;;29.01;47.55;100781.77;1737294;81;21089;-55
2022/08/01 00:45:29;;;;;;;5.55;3.85;;;;;;;29.03;47.37;100782.45;1701533;84;21585;-51
2022/08/01 00:47:55;;;;;;;3.98;3.58;;;;;;;29.06;47.09;100776.81;1699617;84;21065;-50
2022/08/01 00:50:22;;;;;;;5.83;3.92;;;;;;;29.08;46.84;100770.80;1698858;84;21078;-49
2022/08/01 00:52:49;;;;;;;6.45;4.10;;;;;;;29.10;46.34;100766.95;1690021;82;21571;-50
2022/08/01 00:55:16;;;;;;;5.40;3.92;;;;;;;29.11;46.06;100763.30;1736851;81;21515;-52
2022/08/01 00:57:43;;;;;;;5.12;3.75;;;;;;;29.12;45.81;100766.83;1734289;81;21105;-53
2022/08/01 01:00:11;;;;;;;4.40;4.00;;;;;;;29.12;45.67;100769.50;1734811;81;21011;-50
2022/08/01 01:02:39;;;;;;;5.70;3.58;;;;;;;29.12;45.62;100760.13;1735148;82;21515;-50
2022/08/01 01:05:08;;;;;;;4.33;3.42;;;;;;;29.10;45.48;100759.44;1701017;84;21007;-50
2022/08/01 01:08:02;;;;;;;5.50;3.92;;;;;;;29.08;45.41;100756.06;1736692;81;20979;-55
2022/08/01 01:10:43;;;;;;;3.75;3.35;;;;;;;29.05;45.36;100759.03;1637618;87;21114;-51
2022/08/01 01:13:18;;;;;;;5.45;3.98;;;;;;;29.03;45.39;100765.04;1587931;89;21057;-49
2022/08/01 01:15:58;;;;;;;4.85;3.50;;;;;;;29.01;45.32;100761.67;1641609;87;21023;-53
2022/08/01 01:18:35;;;;;;;4.10;3.70;;;;;;;28.99;45.23;100765.84;1636278;87;21082;-50
2022/08/01 01:21:23;;;;;;;3.65;3.35;;;;;;;28.97;45.09;100769.99;1592116;89;21836;-49
2022/08/01 01:24:20;;;;;;;4.22;3.75;;;;;;;28.95;44.93;100771.98;1591929;89;21110;-48
2022/08/01 01:27:30;;;;;;;10.78;6.60;;;;;;;28.93;44.66;100776.64;1635976;87;21091;-49
2022/08/01 01:29:57;;;;;;;13.00;10.10;;;;;;;28.91;44.44;100774.61;1591195;89;21106;-50
2022/08/01 01:32:34;;;;;;;19.37;13.22;;;;;;;28.89;44.18;100780.62;1635832;87;21058;-51
2022/08/01 01:35:06;;;;;;;33.83;22.60;;;;;;;28.87;43.92;100779.92;1634029;87;21051;-49
2022/08/01 01:37:33;;;;;;;67.17;42.90;;;;;;;28.85;43.76;100783.77;1527850;93;21192;-49
2022/08/01 01:40:00;;;;;;;71.70;48.50;;;;;;;28.82;43.60;100780.89;1497078;95;21652;-54
2022/08/01 01:42:27;;;;;;;63.92;42.17;;;;;;;28.81;43.32;100783.72;1497038;96;21127;-49
2022/08/01 01:44:53;;;;;;;47.85;33.23;;;;;;;28.78;43.14;100782.18;1497048;96;21097;-51
2022/08/01 01:47:20;;;;;;;54.73;37.38;;;;;;;28.77;42.92;100776.98;1497339;96;21156;-50
2022/08/01 01:49:47;;;;;;;23.22;16.62;;;;;;;28.76;42.67;100780.63;1496960;96;21147;-52
2022/08/01 01:52:16;;;;;;;10.00;7.55;;;;;;;28.73;42.45;100776.41;1497214;95;21025;-52
2022/08/01 01:54:47;;;;;;;5.87;4.70;;;;;;;28.69;42.40;100779.05;1494852;96;21566;-50
2022/08/01 01:57:13;;;;;;;5.70;3.67;;;;;;;28.65;42.54;100783.50;1487378;96;21092;-52
2022/08/01 01:59:40;;;;;;;3.85;3.55;;;;;;;28.59;42.64;100778.73;1526336;93;21145;-49
2022/08/01 02:02:07;;;;;;;4.97;3.87;;;;;;;28.54;42.88;100779.14;1496927;96;21141;-49
2022/08/01 02:04:37;;;;;;;4.30;3.80;;;;;;;28.52;43.13;100775.77;1497143;96;21570;-50
2022/08/01 02:07:04;;;;;;;4.87;3.42;;;;;;;28.48;43.20;100766.87;1517401;92;21107;-51
2022/08/01 02:09:30;;;;;;;3.92;3.62;;;;;;;28.45;43.69;100768.48;1601432;89;21139;-52
2022/08/01 02:11:58;;;;;;;5.40;3.33;;;;;;;28.42;44.32;100758.91;1601688;89;21063;-49
2022/08/01 02:14:26;;;;;;;4.40;3.98;;;;;;;28.41;44.64;100757.23;1613099;87;21034;-50
2022/08/01 02:16:53;;;;;;;3.95;3.30;;;;;;;28.40;45.24;100749.36;1647337;86;21060;-49
2022/08/01 02:19:20;;;;;;;4.05;3.47;;;;;;;28.37;46.00;100744.29;1647144;86;21533;-54
2022/08/01 02:22:08;;;;;;;6.20;3.90;;;;;;;28.37;46.54;100752.32;1647226;86;21041;-50
2022/08/01 02:24:50;;;;;;;5.33;3.65;;;;;;;28.37;47.13;100741.61;1643435;86;21127;-50
2022/08/01 02:27:23;;;;;;;4.78;3.37;;;;;;;28.38;47.43;100742.80;1643756;86;21588;-51
2022/08/01 02:29:58;;;;;;;6.05;3.60;;;;;;;28.38;47.61;100736.11;1634827;87;21078;-50
2022/08/01 02:32:46;;;;;;;5.70;3.60;;;;;;;28.37;47.42;100738.45;1636685;87;21517;-51
2022/08/01 02:35:22;;;;;;;5.20;3.40;;;;;;;28.39;47.83;100743.16;1730047;81;21049;-51
2022/08/01 02:37:49;;;;;;;5.22;3.40;;;;;;;28.38;48.13;100746.81;1722720;82;21105;-50
2022/08/01 02:40:17;;;;;;;4.20;3.35;;;;;;;28.39;48.71;100751.19;1728418;82;21574;-51
2022/08/01 02:42:47;;;;;;;4.50;3.60;;;;;;;28.40;49.05;100746.69;1728475;82;21626;-51
2022/08/01 02:45:14;;;;;;;7.53;3.83;;;;;;;28.41;48.77;100751.89;1728729;82;21006;-52
2022/08/01 02:47:41;;;;;;;6.53;3.65;;;;;;;28.40;48.53;100762.23;1728612;82;21523;-50
2022/08/01 02:50:11;;;;;;;5.75;4.28;;;;;;;28.39;48.24;100757.88;1722509;82;21054;-51
2022/08/01 02:52:38;;;;;;;4.17;3.77;;;;;;;28.37;47.88;100761.20;1728605;83;21026;-52
2022/08/01 02:55:06;;;;;;;6.87;3.77;;;;;;;28.35;47.75;100763.18;1728712;82;20974;-52
2022/08/01 02:57:33;;;;;;;3.98;3.67;;;;;;;28.32;47.74;100767.47;1728362;82;21045;-53
2022/08/01 03:00:00;;;;;;;5.62;3.80;;;;;;;28.30;47.87;100757.41;1728616;82;21089;-52
2022/08/01 03:02:26;;;;;;;5.90;4.00;;;;;;;28.25;48.14;100758.84;1728388;82;21013;-49
2022/08/01 03:04:53;;;;;;;4.30;3.90;;;;;;;28.21;48.10;100758.30;1728476;82;21010;-52
2022/08/01 03:07:20;;;;;;;4.08;3.67;;;;;;;28.18;47.84;100755.42;1728480;82;21117;-51
2022/08/01 03:09:47;;;;;;;6.28;3.65;;;;;;;28.17;47.81;100744.88;1728497;82;21045;-54
2022/08/01 03:12:17;;;;;;;4.08;3.65;;;;;;;28.16;47.75;100748.52;1669954;84;21073;-53
2022/08/01 03:14:45;;;;;;;3.83;3.52;;;;;;;28.14;47.93;100738.46;1670206;84;21078;-50
2022/08/01 03:17:11;;;;;;;4.47;3.65;;;;;;;28.12;48.07;100743.11;1666952;86;21044;-50
2022/08/01 03:19:39;;;;;;;4.53;3.62;;;;;;;28.09;48.47;100743.39;1669955;84;21093;-50
2022/08/01 03:22:08;;;;;;;4.17;3.70;;;;;;;28.08;48.59;100740.38;1670023;85;21038;-51
2022/08/01 03:24:36;;;;;;;5.45;3.80;;;;;;;28.06;48.72;100733.00;1669946;84;21042;-51
2022/08/01 03:27:03;;;;;;;5.45;3.30;;;;;;;28.05;48.75;100734.82;1662610;85;21045;-50
2022/08/01 03:29:30;;;;;;;4.55;3.58;;;;;;;28.01;48.71;100722.73;1629647;88;21085;-50
2022/08/01 03:31:57;;;;;;;4.05;3.60;;;;;;;27.98;49.01;100727.53;1613863;88;21622;-52
2022/08/01 03:34:23;;;;;;;3.58;3.25;;;;;;;27.97;49.28;100725.83;1631655;87;21175;-49
2022/08/01 03:37:17;;;;;;;3.98;3.58;;;;;;;27.96;49.07;100718.81;1729117;81;21022;-49
2022/08/01 03:39:51;;;;;;;3.65;3.30;;;;;;;27.96;48.83;100712.13;1714335;82;21086;-53
2022/08/01 03:42:24;;;;;;;5.70;3.20;;;;;;;27.95;48.52;100710.39;1602683;89;21078;-50
2022/08/01 03:44:56;;;;;;;4.80;3.02;;;;;;;27.94;48.58;100710.06;1572752;91;21147;-49
2022/08/01 03:47:28;;;;;;;3.92;3.37;;;;;;;27.96;48.69;100710.79;1564077;92;21583;-48
2022/08/01 03:49:54;;;;;;;4.62;3.58;;;;;;;27.96;48.97;100706.29;1569547;91;21607;-51
2022/08/01 03:52:21;;;;;;;4.17;3.77;;;;;;;27.98;49.10;100700.78;1572230;91;21051;-49
2022/08/01 03:54:49;;;;;;;4.10;3.40;;;;;;;27.98;49.17;100695.44;1572435;91;21071;-49
2022/08/01 03:57:16;;;;;;;4.53;3.80;;;;;;;27.99;49.03;100694.43;1567673;91;21129;-50
2022/08/01 03:59:43;;;;;;;6.85;4.17;;;;;;;27.98;49.30;100702.13;1564162;92;21085;-48
2022/08/01 04:02:09;;;;;;;3.95;3.25;;;;;;;27.79;49.92;100711.49;1598351;90;21574;-51
2022/08/01 04:04:36;;;;;;;3.90;3.60;;;;;;;27.71;50.38;100703.35;1598193;90;21046;-48
2022/08/01 04:07:07;;;;;;;5.78;3.42;;;;;;;27.68;50.37;100706.30;1598439;90;21105;-51
2022/08/01 04:09:34;;;;;;;4.35;3.72;;;;;;;27.68;50.18;100708.97;1588322;90;21062;-50
2022/08/01 04:12:01;;;;;;;4.72;4.03;;;;;;;27.92;49.59;100704.02;1598358;90;21045;-52
2022/08/01 04:14:28;;;;;;;4.47;3.77;;;;;;;27.97;49.39;100701.76;1639525;86;21102;-51
2022/08/01 04:16:55;;;;;;;3.87;3.20;;;;;;;27.99;49.49;100700.63;1659604;85;21084;-50
2022/08/01 04:19:22;;;;;;;3.77;3.45;;;;;;;27.99;49.27;100705.98;1716754;83;21507;-50
2022/08/01 04:21:49;;;;;;;4.42;3.08;;;;;;;28.03;49.09;100710.53;1713061;83;21075;-50
2022/08/01 04:24:18;;;;;;;5.85;3.55;;;;;;;28.06;48.82;100711.59;1717230;83;21067;-51
2022/08/01 04:26:45;;;;;;;3.67;3.35;;;;;;;28.07;48.83;100714.12;1716909;83;21095;-51
2022/08/01 04:29:12;;;;;;;3.37;3.08;;;;;;;28.09;48.49;100716.64;1726266;81;21027;-48
2022/08/01 04:31:39;;;;;;;4.08;3.33;;;;;;;28.10;48.08;100721.02;1741335;81;21097;-49
2022/08/01 04:34:06;;;;;;;3.95;3.60;;;;;;;28.10;48.12;100715.66;1746733;82;21562;-50
2022/08/01 04:36:36;;;;;;;3.87;3.58;;;;;;;28.11;47.74;100709.31;1744615;81;21054;-53
2022/08/01 04:39:03;;;;;;;3.20;2.92;;;;;;;28.12;47.65;100708.33;1708805;83;21104;-51
2022/08/01 04:41:30;;;;;;;3.75;3.42;;;;;;;28.12;47.24;100706.52;1706176;83;21018;-50
2022/08/01 04:43:59;;;;;;;3.42;3.12;;;;;;;28.14;47.15;100703.68;1705610;83;21041;-49
2022/08/01 04:46:26;;;;;;;3.80;3.50;;;;;;;28.13;47.06;100702.02;1706019;83;21026;-51
2022/08/01 04:48:53;;;;;;;3.70;3.40;;;;;;;28.13;46.90;100700.67;1705252;83;21025;-48
2022/08/01 04:51:21;;;;;;;3.85;3.40;;;;;;;28.12;46.74;100702.98;1705922;82;21086;-51
2022/08/01 04:53:48;;;;;;;4.80;3.40;;;;;;;28.12;46.67;100709.19;1707990;83;21045;-49
2022/08/01 04:56:15;;;;;;;5.30;3.60;;;;;;;28.15;46.56;100706.72;1744822;81;21519;-50
2022/08/01 04:58:43;;;;;;;3.92;3.62;;;;;;;28.16;46.06;100707.91;1743478;81;21414;-50
2022/08/01 05:01:10;;;;;;;3.65;3.35;;;;;;;28.17;45.96;100698.87;1741382;81;21101;-50
2022/08/01 05:03:37;;;;;;;3.90;3.50;;;;;;;28.19;45.61;100702.76;1740606;81;21069;-49
2022/08/01 05:06:04;;;;;;;5.70;3.92;;;;;;;28.21;45.89;100707.47;1739581;82;20999;-50
2022/08/01 05:08:31;;;;;;;3.90;3.58;;;;;;;28.22;46.01;100710.47;1746034;81;21038;-48
2022/08/01 05:10:57;;;;;;;4.10;3.70;;;;;;;28.26;45.99;100720.38;1707822;83;21018;-53
2022/08/01 05:13:24;;;;;;;6.62;3.70;;;;;;;28.26;46.08;100713.20;1706300;83;21069;-50
2022/08/01 05:15:52;;;;;;;3.72;3.40;;;;;;;28.26;46.04;100725.25;1702140;83;21034;-48
2022/08/01 05:18:18;;;;;;;4.17;3.72;;;;;;;28.27;45.80;100728.28;1705460;83;21094;-52
2022/08/01 05:20:45;;;;;;;3.75;3.37;;;;;;;28.29;46.15;100731.66;1708007;83;21057;-50
2022/08/01 05:23:12;;;;;;;3.50;3.20;;;;;;;28.27;46.40;100720.25;1708650;83;21442;-49
2022/08/01 05:25:38;;;;;;;3.58;3.27;;;;;;;28.28;46.75;100729.10;1708197;83;21001;-52
2022/08/01 05:28:05;;;;;;;4.83;3.37;;;;;;;28.30;46.85;100740.02;1705926;83;21081;-53
2022/08/01 05:30:32;;;;;;;4.37;3.20;;;;;;;28.31;47.14;100741.72;1707735;83;21066;-52
2022/08/01 05:32:59;;;;;;;5.17;3.67;;;;;;;28.36;47.36;100747.45;1704505;83;21058;-50
2022/08/01 05:35:25;;;;;;;6.72;3.65;;;;;;;28.39;47.44;100739.14;1710562;83;21030;-51
2022/08/01 05:37:52;;;;;;;3.87;3.50;;;;;;;28.42;47.56;100745.52;1707690;83;20994;-51
2022/08/01 05:40:19;;;;;;;10.53;4.22;;;;;;;28.43;47.80;100741.87;1705488;83;21117;-50
2022/08/01 05:42:45;;;;;;;9.98;4.22;;;;;;;28.46;48.00;100741.56;1705701;83;21649;-50
2022/08/01 05:45:12;;;;;;;5.53;3.12;;;;;;;28.47;47.82;100741.92;1697928;83;21030;-50
2022/08/01 05:47:39;;;;;;;7.97;3.40;;;;;;;28.47;47.18;100740.59;1705719;83;21061;-50
2022/08/01 05:50:07;;;;;;;8.70;3.70;;;;;;;28.49;47.49;100751.98;1702541;83;21597;-55
2022/08/01 05:52:34;;;;;;;9.65;4.08;;;;;;;28.50;47.84;100753.66;1704900;82;21029;-50
2022/08/01 05:55:00;;;;;;;4.40;3.27;;;;;;;28.54;48.04;100763.08;1704547;82;21081;-50
2022/08/01 05:57:27;;;;;;;20.25;4.80;;;;;;;28.58;47.82;100761.85;1712424;82;21022;-48
2022/08/01 05:59:54;;;;;;;32.90;5.35;;;;;;;28.60;47.78;100773.26;1737768;81;21504;-51
2022/08/01 06:02:21;;;;;;;16.07;4.45;;;;;;;28.63;48.03;100778.30;1750347;81;21014;-50
2022/08/01 06:04:48;;;;;;;10.85;3.90;;;;;;;28.67;48.10;100785.04;1706843;83;21061;-48
2022/08/01 06:07:14;;;;;;;12.70;4.10;;;;;;;28.69;48.11;100792.43;1707116;83;21041;-51
2022/08/01 06:09:41;;;;;;;16.05;4.10;;;;;;;28.72;48.31;100790.81;1707664;83;21041;-52
2022/08/01 06:12:08;;;;;;;11.80;4.37;;;;;;;28.75;48.42;100803.89;1708636;83;21474;-49
2022/08/01 06:14:35;;;;;;;19.37;3.90;;;;;;;28.77;48.37;100807.26;1744481;81;21022;-51
2022/08/01 06:17:01;;;;;;;5.05;3.30;;;;;;;28.80;48.09;100824.88;1706242;82;20962;-49
2022/08/01 06:19:28;;;;;;;4.67;3.40;;;;;;;28.83;47.64;100831.29;1741416;81;21023;-50
2022/08/01 06:21:55;;;;;;;5.87;4.17;;;;;;;28.86;47.30;100831.83;1736972;81;21022;-50
2022/08/01 06:24:23;;;;;;;11.28;6.10;;;;;;;28.90;47.26;100833.22;1742673;81;21038;-49
2022/08/01 06:26:50;;;;;;;8.00;5.47;;;;;;;28.94;46.69;100827.91;1744578;81;21023;-49
2022/08/01 06:29:16;;;;;;;7.50;4.22;;;;;;;28.97;45.99;100830.27;1744307;81;21093;-49
2022/08/01 06:31:43;;;;;;;12.65;4.28;;;;;;;28.99;45.53;100830.14;1748115;81;21062;-50
2022/08/01 06:34:10;;;;;;;11.85;6.22;;;;;;;28.98;45.63;100827.95;1743153;81;21078;-51
2022/08/01 06:36:36;;;;;;;16.82;6.80;;;;;;;28.91;46.29;100828.19;1743760;82;21011;-49
2022/08/01 06:39:03;;;;;;;15.55;5.17;;;;;;;28.95;46.48;100826.89;1746018;81;21086;-49
2022/08/01 06:41:31;;;;;;;6.90;3.47;;;;;;;28.93;47.13;100820.84;1713342;83;21013;-51
2022/08/01 06:43:59;;;;;;;12.63;4.12;;;;;;;28.95;47.64;100826.89;1710861;83;21585;-53
2022/08/01 06:46:26;;;;;;;7.70;4.12;;;;;;;28.97;48.04;100814.20;1710860;83;21046;-50
2022/08/01 06:48:53;;;;;;;15.35;4.70;;;;;;;29.03;47.42;100817.28;1710909;83;21077;-49
2022/08/01 06:51:20;;;;;;;5.72;3.87;;;;;;;29.08;46.59;100816.35;1710989;83;21030;-51
2022/08/01 06:53:47;;;;;;;4.45;3.67;;;;;;;29.19;45.76;100812.13;1707453;83;21034;-49
2022/08/01 06:56:13;;;;;;;5.58;4.10;;;;;;;29.25;45.19;100795.45;1713759;83;21554;-52
2022/08/01 06:58:40;;;;;;;7.20;4.40;;;;;;;29.38;45.06;100801.29;1711154;83;21510;-51
2022/08/01 07:01:07;;;;;;;9.33;4.72;;;;;;;29.47;44.83;100793.68;1710938;83;21038;-50
2022/08/01 07:03:35;;;;;;;8.20;4.72;;;;;;;29.52;44.90;100793.55;1711101;83;21022;-51
2022/08/01 07:06:01;;;;;;;24.67;6.08;;;;;;;29.64;44.51;100792.81;1704519;83;21033;-48
2022/08/01 07:08:28;;;;;;;12.33;5.12;;;;;;;29.69;43.90;100788.69;1714280;83;21022;-52
2022/08/01 07:10:58;;;;;;;6.95;4.60;;;;;;;29.75;43.85;100780.55;1713822;83;20998;-52
2022/08/01 07:13:24;;;;;;;23.90;5.60;;;;;;;29.82;43.56;100782.93;1711692;83;20961;-52
2022/08/01 07:15:52;;;;;;;14.83;5.50;;;;;;;29.93;43.54;100770.62;1698653;83;21490;-49
2022/08/01 07:18:19;;;;;;;13.72;5.15;;;;;;;29.95;43.84;100764.59;1714052;83;21013;-50
2022/08/01 07:20:46;;;;;;;10.93;5.22;;;;;;;30.28;42.99;100765.63;1706705;83;21022;-50
2022/08/01 07:23:13;;;;;;;7.30;4.97;;;;;;;30.52;42.33;100764.47;1710668;83;21065;-55
2022/08/01 07:25:40;;;;;;;40.03;7.22;;;;;;;30.73;41.31;100773.45;1710924;83;21291;-52
2022/08/01 07:28:07;;;;;;;11.33;5.12;;;;;;;30.88;40.24;100767.81;1713299;83;21116;-49
2022/08/01 07:30:34;;;;;;;5.85;4.08;;;;;;;31.01;39.90;100762.83;1714269;83;21576;-50
2022/08/01 07:33:01;;;;;;;7.22;4.67;;;;;;;31.17;39.50;100761.51;1712759;83;21073;-50
2022/08/01 07:35:27;;;;;;;10.32;4.72;;;;;;;31.30;37.89;100768.60;1711716;83;21549;-48
2022/08/01 07:37:54;;;;;;;7.47;4.60;;;;;;;31.39;37.04;100773.00;1713036;83;21096;-52
2022/08/01 07:40:21;;;;;;;8.35;5.20;;;;;;;31.45;36.83;100777.70;1704245;83;21112;-49
2022/08/01 07:42:48;;;;;;;32.20;5.65;;;;;;;31.48;36.52;100778.73;1701135;84;21058;-49
2022/08/01 07:45:15;;;;;;;14.25;5.70;;;;;;;31.48;36.04;100781.92;1696784;84;21026;-52
2022/08/01 07:47:42;;;;;;;8.03;5.80;;;;;;;31.49;35.88;100773.67;1695492;83;21071;-50
2022/08/01 07:50:09;;;;;;;5.60;5.05;;;;;;;31.50;34.42;100774.52;1706622;82;21067;-52
2022/08/01 07:52:37;;;;;;;8.03;5.10;;;;;;;31.51;34.57;100781.07;1711231;82;21054;-51
2022/08/01 07:55:06;;;;;;;12.33;6.33;;;;;;;31.47;33.27;100778.38;1707177;82;21031;-52
2022/08/01 07:57:32;;;;;;;5.33;4.83;;;;;;;31.44;33.96;100778.73;1700515;82;21094;-51
2022/08/01 08:00:01;;;;;;;7.62;4.78;;;;;;;31.41;34.38;100770.98;1711976;82;21003;-52
2022/08/01 08:02:29;;;;;;;23.73;6.22;;;;;;;31.41;33.75;100770.98;1699597;82;21058;-51
2022/08/01 08:04:56;;;;;;;18.77;7.45;;;;;;;31.44;32.95;100772.00;1709877;83;21567;-50
2022/08/01 08:07:23;;;;;;;11.48;5.47;;;;;;;31.43;32.81;100774.88;1709980;82;20977;-49
2022/08/01 08:09:49;;;;;;;10.48;5.62;;;;;;;31.43;32.45;100774.34;1702109;82;21064;-49
2022/08/01 08:12:16;;;;;;;7.22;5.20;;;;;;;31.40;32.09;100782.76;1708435;82;21043;-55
2022/08/01 08:14:43;;;;;;;8.23;4.65;;;;;;;31.36;31.66;100785.41;1702358;82;21567;-49
2022/08/01 08:17:10;;;;;;;5.70;4.90;;;;;;;31.33;31.71;100779.86;1699895;84;21107;-50
2022/08/01 08:19:38;;;;;;;10.72;5.17;;;;;;;31.31;31.88;100776.49;1701845;82;21031;-49
2022/08/01 08:22:07;;;;;;;7.37;5.20;;;;;;;31.29;32.45;100779.85;1707340;82;21026;-54
2022/08/01 08:24:35;;;;;;;7.80;4.92;;;;;;;31.26;32.68;100779.34;1703568;82;21019;-52
2022/08/01 08:27:02;;;;;;;8.00;4.90;;;;;;;31.25;32.81;100783.03;1700830;83;21039;-48
2022/08/01 08:29:31;;;;;;;7.45;5.15;;;;;;;31.24;32.53;100781.36;1703781;82;21078;-50
2022/08/01 08:31:58;;;;;;;6.72;4.97;;;;;;;31.20;32.15;100785.39;1704592;82;21519;-51
2022/08/01 08:34:26;;;;;;;12.90;5.50;;;;;;;31.15;32.17;100775.63;1709038;82;21029;-51
2022/08/01 08:36:54;;;;;;;36.03;6.60;;;;;;;31.10;31.72;100775.26;1706398;82;21015;-52
2022/08/01 08:39:21;;;;;;;13.13;5.55;;;;;;;31.06;31.88;100771.22;1711502;82;21082;-49
2022/08/01 08:41:48;;;;;;;34.80;7.55;;;;;;;31.01;32.24;100771.73;1698112;82;21050;-52
2022/08/01 08:44:15;;;;;;;13.55;5.90;;;;;;;30.97;32.52;100776.25;1708057;82;21031;-50
2022/08/01 08:46:47;;;;;;;6.95;4.62;;;;;;;30.91;33.03;100778.25;1708790;82;21059;-51
2022/08/01 08:49:18;;;;;;;14.85;5.40;;;;;;;30.86;33.28;100785.95;1595725;89;21165;-53
2022/08/01 08:51:47;;;;;;;8.85;6.08;;;;;;;30.79;32.86;100774.16;1598092;89;21017;-52
2022/08/01 08:54:13;;;;;;;11.90;5.65;;;;;;;30.76;32.91;100777.15;1599485;89;21080;-48
2022/08/01 08:56:41;;;;;;;13.62;5.17;;;;;;;30.71;32.86;100781.66;1580930;89;21109;-51
2022/08/01 08:59:07;;;;;;;6.60;5.10;;;;;;;30.68;33.01;100781.14;1567421;89;21053;-54
2022/08/01 09:01:34;;;;;;;8.33;5.12;;;;;;;30.66;32.92;100775.09;1572541;90;21096;-50
2022/08/01 09:04:03;;;;;;;8.80;5.92;;;;;;;30.64;32.88;100781.12;1617468;87;21129;-49
2022/08/01 09:06:31;;;;;;;9.50;5.03;;;;;;;30.62;32.56;100773.25;1630847;87;21061;-50
2022/08/01 09:08:59;;;;;;;6.50;5.12;;;;;;;30.62;32.72;100775.93;1604884;88;21174;-48
2022/08/01 09:11:27;;;;;;;7.87;5.17;;;;;;;30.62;33.56;100767.02;1578471;90;21096;-49
2022/08/01 09:14:14;;;;;;;5.53;5.03;;;;;;;30.62;34.16;100769.70;1627405;87;21059;-50
2022/08/01 09:16:44;;;;;;;9.18;5.20;;;;;;;30.64;34.60;100767.70;1631051;87;21192;-51
2022/08/01 09:19:18;;;;;;;8.55;5.10;;;;;;;30.67;35.01;100768.70;1626068;87;21042;-52
2022/08/01 09:21:58;;;;;;;8.83;5.42;;;;;;;30.72;34.79;100761.02;1631304;87;21019;-53
2022/08/01 09:24:26;;;;;;;9.30;4.75;;;;;;;30.78;34.70;100762.56;1629407;87;21518;-50
2022/08/01 09:26:54;;;;;;;7.35;4.83;;;;;;;30.87;34.27;100763.46;1627310;87;21057;-51
2022/08/01 09:29:27;;;;;;;5.78;5.10;;;;;;;30.91;34.67;100763.47;1636057;87;21573;-50
2022/08/01 09:31:55;;;;;;;5.47;4.80;;;;;;;30.95;34.26;100765.67;1630985;86;21769;-52
2022/08/01 09:34:27;;;;;;;6.87;4.47;;;;;;;31.01;33.70;100760.98;1627402;87;21042;-48
2022/08/01 09:36:56;;;;;;;11.85;5.60;;;;;;;31.08;33.79;100763.34;1627666;87;21083;-52
2022/08/01 09:39:29;;;;;;;9.85;5.45;;;;;;;31.17;34.82;100768.23;1628453;87;21085;-49
2022/08/01 09:41:57;;;;;;;7.00;4.60;;;;;;;31.23;34.87;100763.53;1532351;92;21069;-51
2022/08/01 09:44:41;;;;;;;5.92;4.72;;;;;;;31.29;35.00;100764.22;1536681;92;21113;-49
2022/08/01 09:47:08;;;;;;;7.22;4.78;;;;;;;31.34;35.58;100761.88;1644308;86;21572;-48
2022/08/01 09:49:36;;;;;;;5.45;4.83;;;;;;;31.39;35.91;100760.89;1646287;86;21066;-51
2022/08/01 09:52:18;;;;;;;6.80;4.67;;;;;;;31.45;35.25;100761.57;1644309;86;21023;-48
2022/08/01 09:54:55;;;;;;;12.30;4.78;;;;;;;31.47;35.07;100762.24;1651759;86;21038;-49
2022/08/01 09:57:22;;;;;;;11.00;5.47;;;;;;;31.50;35.13;100759.23;1610498;86;21133;-52
2022/08/01 09:59:53;;;;;;;7.37;4.70;;;;;;;31.52;35.30;100762.59;1603560;88;21081;-51
2022/08/01 10:02:38;;;;;;;6.90;4.85;;;;;;;31.58;34.45;100763.27;1564508;91;21103;-49
2022/08/01 10:05:07;;;;;;;8.28;5.25;;;;;;;31.64;33.67;100752.33;1565591;90;21041;-51
2022/08/01 10:07:36;;;;;;;6.67;4.70;;;;;;;31.68;33.94;100755.86;1565063;90;21038;-51
2022/08/01 10:10:11;;;;;;;5.58;4.75;;;;;;;31.69;33.02;100758.91;1567268;90;21124;-51
2022/08/01 10:12:39;;;;;;;6.10;4.62;;;;;;;31.69;33.09;100749.98;1564308;91;21125;-51
2022/08/01 10:15:07;;;;;;;5.90;4.28;;;;;;;31.70;33.18;100757.88;1565602;90;21066;-55
2022/08/01 10:17:36;;;;;;;11.95;5.20;;;;;;;31.75;33.34;100752.00;1564382;90;21107;-53
2022/08/01 10:20:04;;;;;;;5.92;4.20;;;;;;;31.80;33.40;100751.81;1565792;90;21694;-51
2022/08/01 10:22:31;;;;;;;9.53;4.67;;;;;;;31.85;32.40;100753.51;1563936;91;21050;-54
2022/08/01 10:25:00;;;;;;;9.18;4.40;;;;;;;31.89;32.68;100759.37;1565228;90;21076;-54
2022/08/01 10:27:27;;;;;;;5.50;4.70;;;;;;;31.91;32.27;100758.70;1566201;91;21065;-49
2022/08/01 10:32:31;;;;;;;10.85;4.58;;;;;;;31.99;32.10;100765.45;1473196;96;21157;-50
2022/08/01 10:34:59;;;;;;;9.68;4.28;;;;;;;31.97;31.98;100764.78;1443646;99;21092;-54
2022/08/01 10:37:26;;;;;;;6.03;4.70;;;;;;;31.95;32.27;100764.96;1469770;96;21235;-53
2022/08/01 10:39:53;;;;;;;6.17;4.72;;;;;;;31.94;33.19;100761.91;1444824;98;21155;-50
2022/08/01 10:42:20;;;;;;;5.37;4.78;;;;;;;31.95;33.47;100763.61;1496084;95;21155;-50
2022/08/01 10:44:47;;;;;;;6.15;5.00;;;;;;;31.95;33.71;100754.69;1493012;95;21150;-55
2022/08/01 10:47:18;;;;;;;4.70;4.28;;;;;;;31.96;33.80;100754.52;1509396;92;21120;-51
2022/08/01 10:50:03;;;;;;;6.35;4.03;;;;;;;31.98;34.40;100755.18;1529408;93;21070;-50
2022/08/01 10:52:29;;;;;;;4.58;4.17;;;;;;;32.01;34.84;100751.31;1528654;93;21096;-50
2022/08/01 10:55:09;;;;;;;5.08;4.37;;;;;;;32.05;34.55;100757.54;1553939;91;21131;-52
2022/08/01 10:57:44;;;;;;;6.85;4.95;;;;;;;32.09;35.88;100750.80;1561792;91;21720;-51
2022/08/01 11:00:21;;;;;;;8.05;4.25;;;;;;;32.15;36.88;100751.14;1558563;91;21084;-51
2022/08/01 11:03:03;;;;;;;7.70;4.35;;;;;;;32.17;37.41;100739.69;1532752;92;21113;-53
2022/08/01 11:05:34;;;;;;;5.80;4.35;;;;;;;32.21;36.88;100750.45;1535135;91;21074;-53
2022/08/01 11:08:05;;;;;;;7.55;4.03;;;;;;;32.25;35.99;100747.74;1549781;92;21057;-50
2022/08/01 11:10:42;;;;;;;5.90;4.33;;;;;;;32.29;36.54;100751.27;1539596;92;21080;-52
2022/08/01 11:13:10;;;;;;;6.50;4.17;;;;;;;32.33;35.96;100756.64;1537790;92;21552;-53
2022/08/01 11:15:39;;;;;;;5.22;3.87;;;;;;;32.36;34.88;100746.00;1545051;92;21139;-51
2022/08/01 11:18:30;;;;;;;4.72;4.30;;;;;;;32.37;36.15;100756.63;1540169;92;21638;-51
2022/08/01 11:20:59;;;;;;;5.12;4.05;;;;;;;32.39;36.14;100759.13;1526495;93;21533;-50
2022/08/01 11:23:29;;;;;;;5.72;4.22;;;;;;;32.42;36.48;100752.07;1526655;93;21153;-55
2022/08/01 11:26:05;;;;;;;4.50;4.10;;;;;;;32.45;36.43;100749.86;1527894;92;21320;-51
2022/08/01 11:28:32;;;;;;;4.83;4.42;;;;;;;32.50;36.04;100751.54;1528647;91;21170;-50
2022/08/01 11:31:16;;;;;;;4.55;4.15;;;;;;;32.54;37.21;100748.02;1558705;91;21089;-51
2022/08/01 11:33:48;;;;;;;5.55;4.45;;;;;;;32.56;35.50;100750.02;1541827;92;21159;-52
2022/08/01 11:36:19;;;;;;;6.35;4.00;;;;;;;32.59;35.17;100748.31;1545188;92;21171;-50